sensor_id;sensor_type;location;lat;lon;timestamp;pressure;altitude;pressure_sealevel;temperature;humidity
59289;BME280;45056;47.602;9.886;2023-04-26T00:00:00;92841.31;;;6.81;68.49
59289;BME280;45056;47.602;9.886;2023-04-26T00:02:35;92843.25;;;6.81;68.51
59289;BME280;45056;47.602;9.886;2023-04-26T00:05:04;92843.25;;;6.81;68.49
59289;BME280;45056;47.602;9.886;2023-04-26T00:07:34;92839.38;;;6.82;68.51
59289;BME280;45056;47.602;9.886;2023-04-26T00:10:03;92839.38;;;6.82;68.25
59289;BME280;45056;47.602;9.886;2023-04-26T00:12:32;92840.53;;;6.81;68.31
59289;BME280;45056;47.602;9.886;2023-04-26T00:15:00;92835.91;;;6.81;68.28
59289;BME280;45056;47.602;9.886;2023-04-26T00:17:28;92839.38;;;6.82;68.25
59289;BME280;45056;47.602;9.886;2023-04-26T00:19:58;92844.72;;;6.85;68.09
59289;BME280;45056;47.602;9.886;2023-04-26T00:22:27;92844.31;;;6.87;68.11
59289;BME280;45056;47.602;9.886;2023-04-26T00:24:55;92848.88;;;6.90;68.08
59289;BME280;45056;47.602;9.886;2023-04-26T00:27:23;92849.63;;;6.90;68.07
59289;BME280;45056;47.602;9.886;2023-04-26T00:29:51;92853.84;;;6.91;67.92
59289;BME280;45056;47.602;9.886;2023-04-26T00:32:19;92851.97;;;6.88;68.09
59289;BME280;45056;47.602;9.886;2023-04-26T00:34:47;92848.94;;;6.86;68.06
59289;BME280;45056;47.602;9.886;2023-04-26T00:37:16;92850.53;;;6.84;68.25
59289;BME280;45056;47.602;9.886;2023-04-26T00:39:44;92843.25;;;6.81;68.19
59289;BME280;45056;47.602;9.886;2023-04-26T00:42:13;92854.91;;;6.77;68.39
59289;BME280;45056;47.602;9.886;2023-04-26T00:44:41;92849.50;;;6.77;68.52
59289;BME280;45056;47.602;9.886;2023-04-26T00:47:09;92853.38;;;6.76;68.40
59289;BME280;45056;47.602;9.886;2023-04-26T00:49:37;92849.50;;;6.77;68.48
59289;BME280;45056;47.602;9.886;2023-04-26T00:52:05;92852.53;;;6.79;68.49
59289;BME280;45056;47.602;9.886;2023-04-26T00:54:35;92855.59;;;6.82;68.50
59289;BME280;45056;47.602;9.886;2023-04-26T00:57:03;92852.13;;;6.81;68.34
59289;BME280;45056;47.602;9.886;2023-04-26T00:59:32;92858.63;;;6.84;68.36
59289;BME280;45056;47.602;9.886;2023-04-26T01:02:01;92850.97;;;6.82;68.20
59289;BME280;45056;47.602;9.886;2023-04-26T01:04:30;92848.59;;;6.84;68.23
59289;BME280;45056;47.602;9.886;2023-04-26T01:06:59;92856.28;;;6.86;68.03
59289;BME280;45056;47.602;9.886;2023-04-26T01:09:31;92857.88;;;6.83;67.89
59289;BME280;45056;47.602;9.886;2023-04-26T01:12:01;92856.78;;;6.81;68.01
59289;BME280;45056;47.602;9.886;2023-04-26T01:14:30;92864.53;;;6.78;68.05
59289;BME280;45056;47.602;9.886;2023-04-26T01:17:02;92857.28;;;6.75;68.10
59289;BME280;45056;47.602;9.886;2023-04-26T01:19:31;92848.06;;;6.73;68.24
59289;BME280;45056;47.602;9.886;2023-04-26T01:21:59;92850.84;;;6.69;68.20
59289;BME280;45056;47.602;9.886;2023-04-26T01:24:28;92853.94;;;6.68;68.18
59289;BME280;45056;47.602;9.886;2023-04-26T01:26:57;92853.25;;;6.63;68.39
59289;BME280;45056;47.602;9.886;2023-04-26T01:29:25;92855.22;;;6.63;68.29
59289;BME280;45056;47.602;9.886;2023-04-26T01:31:53;92845.94;;;6.64;68.48
59289;BME280;45056;47.602;9.886;2023-04-26T01:34:21;92843.22;;;6.64;68.49
59289;BME280;45056;47.602;9.886;2023-04-26T01:36:49;92847.44;;;6.65;68.66
59289;BME280;45056;47.602;9.886;2023-04-26T01:39:18;92848.97;;;6.66;68.84
59289;BME280;45056;47.602;9.886;2023-04-26T01:41:47;92854.28;;;6.70;68.44
59289;BME280;45056;47.602;9.886;2023-04-26T01:44:16;92853.47;;;6.73;68.45
59289;BME280;45056;47.602;9.886;2023-04-26T01:46:44;92853.38;;;6.76;68.39
59289;BME280;45056;47.602;9.886;2023-04-26T01:49:12;92861.00;;;6.82;68.10
59289;BME280;45056;47.602;9.886;2023-04-26T01:51:40;92856.38;;;6.82;67.82
59289;BME280;45056;47.602;9.886;2023-04-26T01:54:08;92853.22;;;6.84;67.68
59289;BME280;45056;47.602;9.886;2023-04-26T01:56:36;92855.53;;;6.85;67.58
59289;BME280;45056;47.602;9.886;2023-04-26T01:59:05;92863.97;;;6.87;67.58
59289;BME280;45056;47.602;9.886;2023-04-26T02:01:33;92855.88;;;6.87;67.35
59289;BME280;45056;47.602;9.886;2023-04-26T02:04:01;92859.34;;;6.88;67.40
59289;BME280;45056;47.602;9.886;2023-04-26T02:06:30;92858.16;;;6.89;67.57
59289;BME280;45056;47.602;9.886;2023-04-26T02:08:58;92854.63;;;6.92;67.35
59289;BME280;45056;47.602;9.886;2023-04-26T02:11:26;92856.88;;;6.93;67.30
59289;BME280;45056;47.602;9.886;2023-04-26T02:13:54;92854.19;;;6.93;67.40
59289;BME280;45056;47.602;9.886;2023-04-26T02:16:23;92851.47;;;6.93;67.40
59289;BME280;45056;47.602;9.886;2023-04-26T02:18:52;92852.25;;;6.94;67.45
59289;BME280;45056;47.602;9.886;2023-04-26T02:21:21;92853.00;;;6.95;67.60
59289;BME280;45056;47.602;9.886;2023-04-26T02:23:49;92849.88;;;6.96;67.50
59289;BME280;45056;47.602;9.886;2023-04-26T02:26:17;92841.00;;;6.96;67.61
59289;BME280;45056;47.602;9.886;2023-04-26T02:28:45;92844.47;;;6.96;67.40
59289;BME280;45056;47.602;9.886;2023-04-26T02:31:14;92843.72;;;6.96;67.37
59289;BME280;45056;47.602;9.886;2023-04-26T02:33:43;92848.38;;;6.95;67.23
59289;BME280;45056;47.602;9.886;2023-04-26T02:36:11;92845.66;;;6.95;67.13
59289;BME280;45056;47.602;9.886;2023-04-26T02:38:39;92840.66;;;6.93;67.11
59289;BME280;45056;47.602;9.886;2023-04-26T02:41:07;92836.88;;;6.91;67.13
59289;BME280;45056;47.602;9.886;2023-04-26T02:43:35;92836.53;;;6.89;67.05
59289;BME280;45056;47.602;9.886;2023-04-26T02:46:06;92834.16;;;6.91;66.95
59289;BME280;45056;47.602;9.886;2023-04-26T02:48:34;92834.91;;;6.91;66.99
59289;BME280;45056;47.602;9.886;2023-04-26T02:51:04;92835.25;;;6.93;67.23
59289;BME280;45056;47.602;9.886;2023-04-26T02:53:32;92831.47;;;6.91;67.22
59289;BME280;45056;47.602;9.886;2023-04-26T02:56:00;92828.06;;;6.87;67.42
59289;BME280;45056;47.602;9.886;2023-04-26T02:58:28;92837.34;;;6.86;67.50
59289;BME280;45056;47.602;9.886;2023-04-26T03:00:56;92830.84;;;6.83;67.55
59289;BME280;45056;47.602;9.886;2023-04-26T03:03:24;92830.50;;;6.81;67.73
59289;BME280;45056;47.602;9.886;2023-04-26T03:05:52;92832.44;;;6.81;67.72
59289;BME280;45056;47.602;9.886;2023-04-26T03:08:22;92827.81;;;6.81;67.81
59289;BME280;45056;47.602;9.886;2023-04-26T03:10:50;92827.03;;;6.81;67.87
59289;BME280;45056;47.602;9.886;2023-04-26T03:13:18;92827.81;;;6.81;67.83
59289;BME280;45056;47.602;9.886;2023-04-26T03:15:46;92825.44;;;6.83;67.75
59289;BME280;45056;47.602;9.886;2023-04-26T03:18:15;92837.00;;;6.84;67.74
59289;BME280;45056;47.602;9.886;2023-04-26T03:20:44;92831.94;;;6.86;67.71
59289;BME280;45056;47.602;9.886;2023-04-26T03:23:12;92829.94;;;6.90;67.76
59289;BME280;45056;47.602;9.886;2023-04-26T03:25:41;92827.56;;;6.92;67.56
59289;BME280;45056;47.602;9.886;2023-04-26T03:28:09;92840.25;;;6.95;67.54
59289;BME280;45056;47.602;9.886;2023-04-26T03:30:37;92835.19;;;6.97;67.48
59289;BME280;45056;47.602;9.886;2023-04-26T03:33:05;92837.03;;;7.00;67.51
59289;BME280;45056;47.602;9.886;2023-04-26T03:35:33;92845.16;;;7.00;67.67
59289;BME280;45056;47.602;9.886;2023-04-26T03:38:01;92843.19;;;7.01;67.72
59289;BME280;45056;47.602;9.886;2023-04-26T03:40:29;92844.03;;;6.98;67.77
59289;BME280;45056;47.602;9.886;2023-04-26T03:42:58;92843.72;;;6.96;67.68
59289;BME280;45056;47.602;9.886;2023-04-26T03:45:27;92845.22;;;6.97;67.59
59289;BME280;45056;47.602;9.886;2023-04-26T03:47:55;92844.47;;;6.96;67.61
59289;BME280;45056;47.602;9.886;2023-04-26T03:50:23;92843.28;;;6.97;67.71
59289;BME280;45056;47.602;9.886;2023-04-26T03:52:51;92839.06;;;6.96;67.64
59289;BME280;45056;47.602;9.886;2023-04-26T03:55:19;92841.78;;;6.96;67.60
59289;BME280;45056;47.602;9.886;2023-04-26T03:57:47;92833.66;;;6.96;67.55
59289;BME280;45056;47.602;9.886;2023-04-26T04:00:17;92832.13;;;6.95;67.58
59289;BME280;45056;47.602;9.886;2023-04-26T04:02:45;92841.78;;;6.96;67.57
59289;BME280;45056;47.602;9.886;2023-04-26T04:05:13;92838.63;;;6.98;67.54
59289;BME280;45056;47.602;9.886;2023-04-26T04:07:41;92839.41;;;6.98;67.57
59289;BME280;45056;47.602;9.886;2023-04-26T04:10:09;92842.13;;;6.98;67.49
59289;BME280;45056;47.602;9.886;2023-04-26T04:12:37;92835.19;;;6.97;67.55
59289;BME280;45056;47.602;9.886;2023-04-26T04:15:06;92834.75;;;6.99;67.54
59289;BME280;45056;47.602;9.886;2023-04-26T04:17:37;92834.34;;;7.00;67.42
59289;BME280;45056;47.602;9.886;2023-04-26T04:20:06;92838.91;;;7.03;67.40
59289;BME280;45056;47.602;9.886;2023-04-26T04:22:35;92835.44;;;7.03;67.46
59289;BME280;45056;47.602;9.886;2023-04-26T04:25:05;92831.97;;;7.02;67.60
59289;BME280;45056;47.602;9.886;2023-04-26T04:27:35;92843.56;;;7.03;67.53
59289;BME280;45056;47.602;9.886;2023-04-26T04:30:04;92839.31;;;7.02;67.73
59289;BME280;45056;47.602;9.886;2023-04-26T04:32:34;92836.19;;;7.03;67.86
59289;BME280;45056;47.602;9.886;2023-04-26T04:35:05;92839.31;;;7.02;67.72
59289;BME280;45056;47.602;9.886;2023-04-26T04:37:33;92828.50;;;7.02;67.54
59289;BME280;45056;47.602;9.886;2023-04-26T04:40:01;92837.78;;;7.01;67.59
59289;BME280;45056;47.602;9.886;2023-04-26T04:42:30;92834.34;;;7.00;67.43
59289;BME280;45056;47.602;9.886;2023-04-26T04:44:58;92832.38;;;7.01;67.33
59289;BME280;45056;47.602;9.886;2023-04-26T04:47:26;92835.94;;;6.98;67.12
59289;BME280;45056;47.602;9.886;2023-04-26T04:49:56;92833.66;;;6.96;67.44
59289;BME280;45056;47.602;9.886;2023-04-26T04:52:24;92844.13;;;6.94;67.45
59289;BME280;45056;47.602;9.886;2023-04-26T04:54:52;92836.88;;;6.91;67.42
59289;BME280;45056;47.602;9.886;2023-04-26T04:57:20;92832.22;;;6.91;67.43
59289;BME280;45056;47.602;9.886;2023-04-26T04:59:48;92834.50;;;6.93;67.42
59289;BME280;45056;47.602;9.886;2023-04-26T05:02:16;92834.00;;;6.98;67.11
59289;BME280;45056;47.602;9.886;2023-04-26T05:04:44;92835.00;;;7.04;67.16
59289;BME280;45056;47.602;9.886;2023-04-26T05:07:14;92835.28;;;7.10;66.90
59289;BME280;45056;47.602;9.886;2023-04-26T05:09:43;92841.38;;;7.14;66.61
59289;BME280;45056;47.602;9.886;2023-04-26T05:12:11;92835.44;;;7.19;66.35
59289;BME280;45056;47.602;9.886;2023-04-26T05:14:39;92836.91;;;7.24;66.11
59289;BME280;45056;47.602;9.886;2023-04-26T05:17:07;92844.50;;;7.29;66.01
59289;BME280;45056;47.602;9.886;2023-04-26T05:19:35;92842.56;;;7.30;65.71
59289;BME280;45056;47.602;9.886;2023-04-26T05:22:03;92841.81;;;7.29;65.77
59289;BME280;45056;47.602;9.886;2023-04-26T05:24:33;92843.41;;;7.27;65.67
59289;BME280;45056;47.602;9.886;2023-04-26T05:27:01;92850.66;;;7.30;65.55
59289;BME280;45056;47.602;9.886;2023-04-26T05:29:30;92843.59;;;7.36;65.51
59289;BME280;45056;47.602;9.886;2023-04-26T05:31:59;92851.44;;;7.47;65.10
59289;BME280;45056;47.602;9.886;2023-04-26T05:34:27;92844.25;;;7.57;64.99
59289;BME280;45056;47.602;9.886;2023-04-26T05:36:55;92840.41;;;7.71;64.77
59289;BME280;45056;47.602;9.886;2023-04-26T05:39:23;92846.56;;;7.88;64.32
59289;BME280;45056;47.602;9.886;2023-04-26T05:41:53;92850.44;;;8.03;63.67
59289;BME280;45056;47.602;9.886;2023-04-26T05:44:21;92854.81;;;8.14;63.16
59289;BME280;45056;47.602;9.886;2023-04-26T05:46:49;92852.94;;;8.27;62.77
59289;BME280;45056;47.602;9.886;2023-04-26T05:49:17;92853.72;;;8.41;62.45
59289;BME280;45056;47.602;9.886;2023-04-26T05:51:45;92856.22;;;8.48;62.06
59289;BME280;45056;47.602;9.886;2023-04-26T05:54:13;92851.16;;;8.50;61.75
59289;BME280;45056;47.602;9.886;2023-04-26T05:56:41;92861.94;;;8.54;61.61
59289;BME280;45056;47.602;9.886;2023-04-26T05:59:11;92859.88;;;8.58;61.61
59289;BME280;45056;47.602;9.886;2023-04-26T06:01:39;92870.31;;;8.59;61.80
59289;BME280;45056;47.602;9.886;2023-04-26T06:04:07;92858.69;;;8.59;61.63
59289;BME280;45056;47.602;9.886;2023-04-26T06:06:35;92858.34;;;8.57;61.88
59289;BME280;45056;47.602;9.886;2023-04-26T06:09:03;92860.72;;;8.55;61.93
59289;BME280;45056;47.602;9.886;2023-04-26T06:11:31;92853.78;;;8.54;61.90
59289;BME280;45056;47.602;9.886;2023-04-26T06:13:59;92862.66;;;8.54;61.88
59289;BME280;45056;47.602;9.886;2023-04-26T06:16:28;92861.94;;;8.54;61.78
59289;BME280;45056;47.602;9.886;2023-04-26T06:18:56;92865.28;;;8.58;61.96
59289;BME280;45056;47.602;9.886;2023-04-26T06:21:24;92859.66;;;8.65;62.49
59289;BME280;45056;47.602;9.886;2023-04-26T06:23:52;92866.31;;;8.77;62.48
59289;BME280;45056;47.602;9.886;2023-04-26T06:26:20;92864.28;;;8.94;62.36
59289;BME280;45056;47.602;9.886;2023-04-26T06:28:48;92871.13;;;9.12;61.93
59289;BME280;45056;47.602;9.886;2023-04-26T06:31:16;92865.91;;;9.17;61.60
59289;BME280;45056;47.602;9.886;2023-04-26T06:33:46;92862.88;;;9.15;61.72
59289;BME280;45056;47.602;9.886;2023-04-26T06:36:14;92864.94;;;9.24;61.87
59289;BME280;45056;47.602;9.886;2023-04-26T06:38:45;92866.34;;;9.29;61.31
59289;BME280;45056;47.602;9.886;2023-04-26T06:41:14;92863.41;;;9.23;60.66
59289;BME280;45056;47.602;9.886;2023-04-26T06:43:42;92867.97;;;9.13;60.96
59289;BME280;45056;47.602;9.886;2023-04-26T06:46:10;92873.94;;;9.08;61.50
59289;BME280;45056;47.602;9.886;2023-04-26T06:48:37;92873.72;;;9.02;61.85
59289;BME280;45056;47.602;9.886;2023-04-26T06:51:08;92876.09;;;9.00;61.65
59289;BME280;45056;47.602;9.886;2023-04-26T06:53:36;92876.66;;;8.95;61.83
59289;BME280;45056;47.602;9.886;2023-04-26T06:56:05;92875.25;;;8.90;62.22
59289;BME280;45056;47.602;9.886;2023-04-26T06:58:33;92877.59;;;8.88;62.44
59289;BME280;45056;47.602;9.886;2023-04-26T07:01:01;92877.50;;;8.92;62.57
59289;BME280;45056;47.602;9.886;2023-04-26T07:03:30;92880.47;;;8.98;62.65
59289;BME280;45056;47.602;9.886;2023-04-26T07:05:59;92886.75;;;8.94;62.33
59289;BME280;45056;47.602;9.886;2023-04-26T07:08:29;92885.31;;;8.90;62.04
59289;BME280;45056;47.602;9.886;2023-04-26T07:10:57;92883.38;;;8.90;62.10
59289;BME280;45056;47.602;9.886;2023-04-26T07:13:25;92882.84;;;8.95;62.06
59289;BME280;45056;47.602;9.886;2023-04-26T07:15:53;92885.44;;;8.99;61.97
59289;BME280;45056;47.602;9.886;2023-04-26T07:18:21;92885.66;;;9.05;62.17
59289;BME280;45056;47.602;9.886;2023-04-26T07:20:48;92882.41;;;9.10;62.29
59289;BME280;45056;47.602;9.886;2023-04-26T07:23:16;92876.34;;;9.19;62.58
59289;BME280;45056;47.602;9.886;2023-04-26T07:25:46;92878.09;;;9.26;62.16
59289;BME280;45056;47.602;9.886;2023-04-26T07:28:14;92884.72;;;9.37;61.91
59289;BME280;45056;47.602;9.886;2023-04-26T07:30:42;92876.88;;;9.52;61.12
59289;BME280;45056;47.602;9.886;2023-04-26T07:33:10;92871.41;;;9.65;60.70
59289;BME280;45056;47.602;9.886;2023-04-26T07:35:38;92863.13;;;9.82;59.80
59289;BME280;45056;47.602;9.886;2023-04-26T07:38:06;92865.16;;;10.04;59.04
59289;BME280;45056;47.602;9.886;2023-04-26T07:40:34;92867.53;;;10.37;57.99
59289;BME280;45056;47.602;9.886;2023-04-26T07:43:04;92870.31;;;10.91;57.42
59289;BME280;45056;47.602;9.886;2023-04-26T07:45:32;92873.72;;;11.36;56.85
59289;BME280;45056;47.602;9.886;2023-04-26T07:48:00;92869.13;;;11.64;56.34
59289;BME280;45056;47.602;9.886;2023-04-26T07:50:28;92867.34;;;11.71;55.52
59289;BME280;45056;47.602;9.886;2023-04-26T07:52:56;92874.47;;;11.87;55.52
59289;BME280;45056;47.602;9.886;2023-04-26T07:55:25;92875.47;;;12.11;54.94
59289;BME280;45056;47.602;9.886;2023-04-26T07:57:53;92876.84;;;12.25;54.15
59289;BME280;45056;47.602;9.886;2023-04-26T08:00:23;92872.75;;;12.39;52.73
59289;BME280;45056;47.602;9.886;2023-04-26T08:02:51;92876.81;;;12.81;52.66
59289;BME280;45056;47.602;9.886;2023-04-26T08:05:19;92871.63;;;12.93;52.49
59289;BME280;45056;47.602;9.886;2023-04-26T08:07:48;92872.09;;;12.82;52.67
59289;BME280;45056;47.602;9.886;2023-04-26T08:10:16;92871.38;;;12.63;51.96
59289;BME280;45056;47.602;9.886;2023-04-26T08:12:44;92871.84;;;12.33;52.19
59289;BME280;45056;47.602;9.886;2023-04-26T08:15:12;92866.97;;;12.09;52.59
59289;BME280;45056;47.602;9.886;2023-04-26T08:17:42;92864.47;;;11.83;52.73
59289;BME280;45056;47.602;9.886;2023-04-26T08:20:10;92872.16;;;11.57;53.65
59289;BME280;45056;47.602;9.886;2023-04-26T08:22:38;92871.16;;;11.32;53.95
59289;BME280;45056;47.602;9.886;2023-04-26T08:25:07;92875.75;;;11.13;54.38
59289;BME280;45056;47.602;9.886;2023-04-26T08:27:35;92869.13;;;10.92;54.64
59289;BME280;45056;47.602;9.886;2023-04-26T08:30:04;92880.53;;;10.77;55.25
59289;BME280;45056;47.602;9.886;2023-04-26T08:32:32;92870.19;;;10.63;55.90
59289;BME280;45056;47.602;9.886;2023-04-26T08:35:02;92873.28;;;10.52;56.28
59289;BME280;45056;47.602;9.886;2023-04-26T08:37:31;92872.75;;;10.44;56.47
59289;BME280;45056;47.602;9.886;2023-04-26T08:39:59;92874.84;;;10.40;56.61
59289;BME280;45056;47.602;9.886;2023-04-26T08:42:27;92879.81;;;10.42;56.94
59289;BME280;45056;47.602;9.886;2023-04-26T08:44:59;92876.22;;;10.45;56.99
59289;BME280;45056;47.602;9.886;2023-04-26T08:47:38;92877.94;;;10.51;56.89
59289;BME280;45056;47.602;9.886;2023-04-26T08:50:13;92882.25;;;10.62;56.55
59289;BME280;45056;47.602;9.886;2023-04-26T08:52:43;92864.84;;;10.81;56.65
59289;BME280;45056;47.602;9.886;2023-04-26T08:55:12;92872.97;;;11.04;55.19
59289;BME280;45056;47.602;9.886;2023-04-26T08:57:42;92870.22;;;11.26;54.22
59289;BME280;45056;47.602;9.886;2023-04-26T09:00:14;92872.41;;;11.50;53.45
59289;BME280;45056;47.602;9.886;2023-04-26T09:02:47;92869.94;;;11.74;52.72
59289;BME280;45056;47.602;9.886;2023-04-26T09:05:18;92867.41;;;12.08;51.23
59289;BME280;45056;47.602;9.886;2023-04-26T09:07:49;92870.47;;;12.19;49.81
59289;BME280;45056;47.602;9.886;2023-04-26T09:10:20;92874.72;;;12.20;49.98
59289;BME280;45056;47.602;9.886;2023-04-26T09:12:50;92875.63;;;12.17;50.74
59289;BME280;45056;47.602;9.886;2023-04-26T09:15:20;92873.47;;;12.12;50.01
59289;BME280;45056;47.602;9.886;2023-04-26T09:17:49;92877.13;;;12.09;50.44
59289;BME280;45056;47.602;9.886;2023-04-26T09:20:21;92876.81;;;12.07;50.97
59289;BME280;45056;47.602;9.886;2023-04-26T09:22:53;92876.50;;;12.14;51.53
59289;BME280;45056;47.602;9.886;2023-04-26T09:25:31;92879.41;;;12.29;52.57
59289;BME280;45056;47.602;9.886;2023-04-26T09:28:00;92876.53;;;12.42;51.80
59289;BME280;45056;47.602;9.886;2023-04-26T09:30:37;92872.00;;;12.58;51.46
59289;BME280;45056;47.602;9.886;2023-04-26T09:33:06;92879.25;;;12.70;50.63
59289;BME280;45056;47.602;9.886;2023-04-26T09:35:37;92879.84;;;12.83;50.04
59289;BME280;45056;47.602;9.886;2023-04-26T09:38:07;92878.63;;;12.94;49.08
59289;BME280;45056;47.602;9.886;2023-04-26T09:40:39;92884.06;;;12.94;48.58
59289;BME280;45056;47.602;9.886;2023-04-26T09:43:11;92879.06;;;12.92;47.26
59289;BME280;45056;47.602;9.886;2023-04-26T09:45:46;92875.00;;;12.88;47.62
59289;BME280;45056;47.602;9.886;2023-04-26T09:48:18;92871.78;;;12.89;48.41
59289;BME280;45056;47.602;9.886;2023-04-26T09:50:50;92876.19;;;12.96;48.68
59289;BME280;45056;47.602;9.886;2023-04-26T09:53:30;92871.47;;;13.06;48.27
59289;BME280;45056;47.602;9.886;2023-04-26T09:56:08;92858.25;;;13.13;48.41
59289;BME280;45056;47.602;9.886;2023-04-26T09:58:39;92860.69;;;13.11;47.13
59289;BME280;45056;47.602;9.886;2023-04-26T10:01:24;92865.22;;;13.05;46.97
59289;BME280;45056;47.602;9.886;2023-04-26T10:03:55;92870.50;;;13.18;46.69
59289;BME280;45056;47.602;9.886;2023-04-26T10:06:26;92869.53;;;13.40;45.89
59289;BME280;45056;47.602;9.886;2023-04-26T10:08:55;92864.19;;;13.55;42.77
59289;BME280;45056;47.602;9.886;2023-04-26T10:11:23;92859.81;;;13.48;42.29
59289;BME280;45056;47.602;9.886;2023-04-26T10:13:54;92865.16;;;13.43;42.71
59289;BME280;45056;47.602;9.886;2023-04-26T10:16:22;92864.69;;;13.35;44.41
59289;BME280;45056;47.602;9.886;2023-04-26T10:18:51;92855.44;;;13.32;45.64
59289;BME280;45056;47.602;9.886;2023-04-26T10:21:24;92859.88;;;13.30;46.24
59289;BME280;45056;47.602;9.886;2023-04-26T10:23:58;92862.59;;;13.20;46.26
59289;BME280;45056;47.602;9.886;2023-04-26T10:26:46;92860.50;;;13.15;46.17
59289;BME280;45056;47.602;9.886;2023-04-26T10:29:15;92859.88;;;13.20;47.53
59289;BME280;45056;47.602;9.886;2023-04-26T10:32:05;92859.22;;;13.35;47.01
59289;BME280;45056;47.602;9.886;2023-04-26T10:34:36;92858.59;;;13.40;45.31
59289;BME280;45056;47.602;9.886;2023-04-26T10:37:10;92854.19;;;13.52;44.85
59289;BME280;45056;47.602;9.886;2023-04-26T10:39:40;92861.75;;;13.57;43.99
59289;BME280;45056;47.602;9.886;2023-04-26T10:42:21;92856.28;;;13.57;44.10
59289;BME280;45056;47.602;9.886;2023-04-26T10:44:51;92843.63;;;13.69;44.82
59289;BME280;45056;47.602;9.886;2023-04-26T10:47:22;92847.81;;;13.79;43.92
59289;BME280;45056;47.602;9.886;2023-04-26T10:50:01;92839.78;;;13.76;43.71
59289;BME280;45056;47.602;9.886;2023-04-26T10:52:35;92832.47;;;13.82;42.01
59289;BME280;45056;47.602;9.886;2023-04-26T10:55:04;92826.75;;;13.95;41.78
59289;BME280;45056;47.602;9.886;2023-04-26T10:57:46;92835.41;;;14.18;42.39
59289;BME280;45056;47.602;9.886;2023-04-26T11:00:27;92841.00;;;14.23;41.75
59289;BME280;45056;47.602;9.886;2023-04-26T11:03:05;92837.69;;;14.19;42.47
59289;BME280;45056;47.602;9.886;2023-04-26T11:08:28;92832.97;;;14.20;42.46
59289;BME280;45056;47.602;9.886;2023-04-26T11:11:09;92830.44;;;14.31;41.14
59289;BME280;45056;47.602;9.886;2023-04-26T11:13:40;92834.13;;;14.28;41.17
59289;BME280;45056;47.602;9.886;2023-04-26T11:16:11;92835.22;;;14.21;41.55
59289;BME280;45056;47.602;9.886;2023-04-26T11:18:41;92829.59;;;14.25;42.30
59289;BME280;45056;47.602;9.886;2023-04-26T11:21:11;92829.22;;;14.32;42.46
59289;BME280;45056;47.602;9.886;2023-04-26T11:23:52;92828.47;;;14.32;41.67
59289;BME280;45056;47.602;9.886;2023-04-26T11:26:21;92822.94;;;14.41;41.96
59289;BME280;45056;47.602;9.886;2023-04-26T11:28:50;92817.94;;;14.54;41.71
59289;BME280;45056;47.602;9.886;2023-04-26T11:31:18;92825.03;;;14.61;41.47
59289;BME280;45056;47.602;9.886;2023-04-26T11:33:46;92828.50;;;14.62;41.50
59289;BME280;45056;47.602;9.886;2023-04-26T11:36:14;92820.41;;;14.67;40.71
59289;BME280;45056;47.602;9.886;2023-04-26T11:38:44;92811.38;;;14.76;39.91
59289;BME280;45056;47.602;9.886;2023-04-26T11:41:11;92812.50;;;14.84;40.08
59289;BME280;45056;47.602;9.886;2023-04-26T11:43:40;92809.09;;;14.90;40.54
59289;BME280;45056;47.602;9.886;2023-04-26T11:46:08;92815.72;;;14.83;40.25
59289;BME280;45056;47.602;9.886;2023-04-26T11:48:37;92814.41;;;14.78;40.47
59289;BME280;45056;47.602;9.886;2023-04-26T11:51:07;92814.97;;;14.82;39.89
59289;BME280;45056;47.602;9.886;2023-04-26T11:53:39;92810.81;;;14.87;40.27
59289;BME280;45056;47.602;9.886;2023-04-26T11:56:15;92817.81;;;14.88;40.43
59289;BME280;45056;47.602;9.886;2023-04-26T11:58:45;92809.66;;;14.94;39.51
59289;BME280;45056;47.602;9.886;2023-04-26T12:01:20;92799.94;;;14.93;39.55
59289;BME280;45056;47.602;9.886;2023-04-26T12:03:50;92805.50;;;14.98;40.30
59289;BME280;45056;47.602;9.886;2023-04-26T12:06:19;92799.94;;;15.08;40.89
59289;BME280;45056;47.602;9.886;2023-04-26T12:08:52;92808.41;;;15.25;41.13
59289;BME280;45056;47.602;9.886;2023-04-26T12:11:21;92807.44;;;15.28;39.92
59289;BME280;45056;47.602;9.886;2023-04-26T12:13:49;92809.28;;;15.16;39.52
59289;BME280;45056;47.602;9.886;2023-04-26T12:16:17;92812.31;;;15.03;39.79
59289;BME280;45056;47.602;9.886;2023-04-26T12:18:49;92808.34;;;14.89;40.29
59289;BME280;45056;47.602;9.886;2023-04-26T12:21:18;92813.56;;;14.72;41.03
59289;BME280;45056;47.602;9.886;2023-04-26T12:23:47;92812.28;;;14.58;41.61
59289;BME280;45056;47.602;9.886;2023-04-26T12:26:15;92814.25;;;14.57;41.63
59289;BME280;45056;47.602;9.886;2023-04-26T12:28:47;92809.00;;;14.69;41.24
59289;BME280;45056;47.602;9.886;2023-04-26T12:31:15;92812.66;;;14.66;40.63
59289;BME280;45056;47.602;9.886;2023-04-26T12:33:43;92803.22;;;14.52;40.95
59289;BME280;45056;47.602;9.886;2023-04-26T12:36:11;92809.25;;;14.41;41.56
59289;BME280;45056;47.602;9.886;2023-04-26T12:38:40;92809.28;;;14.32;41.06
59289;BME280;45056;47.602;9.886;2023-04-26T12:41:08;92808.44;;;14.25;41.26
59289;BME280;45056;47.602;9.886;2023-04-26T12:43:36;92802.41;;;14.21;41.32
59289;BME280;45056;47.602;9.886;2023-04-26T12:46:06;92813.34;;;14.21;41.95
59289;BME280;45056;47.602;9.886;2023-04-26T12:48:34;92812.41;;;14.24;41.93
59289;BME280;45056;47.602;9.886;2023-04-26T12:51:02;92818.72;;;14.31;42.09
59289;BME280;45056;47.602;9.886;2023-04-26T12:53:30;92807.72;;;14.40;42.02
59289;BME280;45056;47.602;9.886;2023-04-26T12:55:59;92805.19;;;14.51;41.66
59289;BME280;45056;47.602;9.886;2023-04-26T12:58:27;92796.41;;;14.62;41.14
59289;BME280;45056;47.602;9.886;2023-04-26T13:00:55;92799.56;;;14.70;41.57
59289;BME280;45056;47.602;9.886;2023-04-26T13:03:25;92806.75;;;14.82;41.08
59289;BME280;45056;47.602;9.886;2023-04-26T13:05:53;92807.69;;;14.94;42.10
59289;BME280;45056;47.602;9.886;2023-04-26T13:08:21;92796.25;;;14.96;39.79
59289;BME280;45056;47.602;9.886;2023-04-26T13:10:49;92796.25;;;14.96;39.54
59289;BME280;45056;47.602;9.886;2023-04-26T13:13:17;92797.19;;;14.93;39.76
59289;BME280;45056;47.602;9.886;2023-04-26T13:15:45;92809.38;;;14.92;38.21
59289;BME280;45056;47.602;9.886;2023-04-26T13:18:13;92791.94;;;14.89;38.29
59289;BME280;45056;47.602;9.886;2023-04-26T13:20:44;92800.69;;;14.93;37.55